sensor_id;sensor_type;location;lat;lon;timestamp;temperature;humidity
35240;DHT22;21376;50.954;4.716;2023-08-08T00:04:36;13.20;99.90
35240;DHT22;21376;50.954;4.716;2023-08-08T00:07:08;13.20;99.90
35240;DHT22;21376;50.954;4.716;2023-08-08T00:09:35;13.10;99.90
35240;DHT22;21376;50.954;4.716;2023-08-08T00:12:03;13.20;99.90
35240;DHT22;21376;50.954;4.716;2023-08-08T00:14:32;13.30;99.90
35240;DHT22;21376;50.954;4.716;2023-08-08T00:16:58;13.30;99.90
35240;DHT22;21376;50.954;4.716;2023-08-08T00:19:27;13.30;99.90
35240;DHT22;21376;50.954;4.716;2023-08-08T00:21:59;13.30;99.90
35240;DHT22;21376;50.954;4.716;2023-08-08T00:26:58;13.30;99.90
35240;DHT22;21376;50.954;4.716;2023-08-08T00:32:21;13.40;99.90
35240;DHT22;21376;50.954;4.716;2023-08-08T00:34:50;13.30;99.90
35240;DHT22;21376;50.954;4.716;2023-08-08T00:37:29;13.30;99.90
35240;DHT22;21376;50.954;4.716;2023-08-08T00:40:00;13.30;99.90
35240;DHT22;21376;50.954;4.716;2023-08-08T00:42:31;13.20;99.90
35240;DHT22;21376;50.954;4.716;2023-08-08T00:44:57;13.30;99.90
35240;DHT22;21376;50.954;4.716;2023-08-08T00:50:42;13.30;99.90
35240;DHT22;21376;50.954;4.716;2023-08-08T00:53:15;13.50;99.90
35240;DHT22;21376;50.954;4.716;2023-08-08T00:55:47;13.50;99.90
35240;DHT22;21376;50.954;4.716;2023-08-08T00:58:20;13.50;99.90
35240;DHT22;21376;50.954;4.716;2023-08-08T01:00:50;13.40;99.90
35240;DHT22;21376;50.954;4.716;2023-08-08T01:03:21;13.40;99.90
35240;DHT22;21376;50.954;4.716;2023-08-08T01:06:02;13.40;99.90
35240;DHT22;21376;50.954;4.716;2023-08-08T01:08:32;13.40;99.90
35240;DHT22;21376;50.954;4.716;2023-08-08T01:11:01;13.40;99.90
35240;DHT22;21376;50.954;4.716;2023-08-08T01:13:39;13.40;99.90
35240;DHT22;21376;50.954;4.716;2023-08-08T01:16:05;13.30;99.90
35240;DHT22;21376;50.954;4.716;2023-08-08T01:26:20;13.40;99.90
35240;DHT22;21376;50.954;4.716;2023-08-08T01:28:47;13.40;99.90
35240;DHT22;21376;50.954;4.716;2023-08-08T01:31:16;13.50;99.90
35240;DHT22;21376;50.954;4.716;2023-08-08T01:36:16;13.40;99.90
35240;DHT22;21376;50.954;4.716;2023-08-08T01:38:46;13.30;99.90
35240;DHT22;21376;50.954;4.716;2023-08-08T01:41:14;13.30;99.90
35240;DHT22;21376;50.954;4.716;2023-08-08T01:43:44;13.20;99.90
35240;DHT22;21376;50.954;4.716;2023-08-08T01:46:13;13.30;99.90
35240;DHT22;21376;50.954;4.716;2023-08-08T01:48:44;13.40;99.90
35240;DHT22;21376;50.954;4.716;2023-08-08T01:54:08;13.40;99.90
35240;DHT22;21376;50.954;4.716;2023-08-08T01:56:36;13.40;99.90
35240;DHT22;21376;50.954;4.716;2023-08-08T02:01:34;13.30;99.90
35240;DHT22;21376;50.954;4.716;2023-08-08T02:04:03;13.30;99.90
35240;DHT22;21376;50.954;4.716;2023-08-08T02:06:30;13.30;99.90
35240;DHT22;21376;50.954;4.716;2023-08-08T02:08:59;13.30;99.90
35240;DHT22;21376;50.954;4.716;2023-08-08T02:11:28;13.30;99.90
35240;DHT22;21376;50.954;4.716;2023-08-08T02:24:39;13.20;99.90
35240;DHT22;21376;50.954;4.716;2023-08-08T02:27:05;13.20;99.90
35240;DHT22;21376;50.954;4.716;2023-08-08T02:32:40;13.30;99.90
35240;DHT22;21376;50.954;4.716;2023-08-08T02:37:44;13.30;99.90
35240;DHT22;21376;50.954;4.716;2023-08-08T02:40:15;13.40;99.90
35240;DHT22;21376;50.954;4.716;2023-08-08T02:42:43;13.40;99.90
35240;DHT22;21376;50.954;4.716;2023-08-08T02:45:10;13.30;99.90
35240;DHT22;21376;50.954;4.716;2023-08-08T02:47:36;13.20;99.90
35240;DHT22;21376;50.954;4.716;2023-08-08T02:50:01;13.30;99.90
35240;DHT22;21376;50.954;4.716;2023-08-08T02:52:27;13.20;99.90
35240;DHT22;21376;50.954;4.716;2023-08-08T02:54:54;13.30;99.90
35240;DHT22;21376;50.954;4.716;2023-08-08T02:57:26;13.30;99.90
35240;DHT22;21376;50.954;4.716;2023-08-08T02:59:54;13.30;99.90
35240;DHT22;21376;50.954;4.716;2023-08-08T03:02:23;13.30;99.90
35240;DHT22;21376;50.954;4.716;2023-08-08T03:04:55;13.40;99.90
35240;DHT22;21376;50.954;4.716;2023-08-08T03:07:35;13.30;99.90
35240;DHT22;21376;50.954;4.716;2023-08-08T03:10:04;13.20;99.90
35240;DHT22;21376;50.954;4.716;2023-08-08T03:12:33;13.10;99.90
35240;DHT22;21376;50.954;4.716;2023-08-08T03:17:31;13.10;99.90
35240;DHT22;21376;50.954;4.716;2023-08-08T03:20:03;13.10;99.90
35240;DHT22;21376;50.954;4.716;2023-08-08T03:22:31;13.10;99.90
35240;DHT22;21376;50.954;4.716;2023-08-08T03:25:03;13.20;99.90
35240;DHT22;21376;50.954;4.716;2023-08-08T03:30:01;12.80;99.90
35240;DHT22;21376;50.954;4.716;2023-08-08T03:32:28;13.10;99.90
35240;DHT22;21376;50.954;4.716;2023-08-08T03:34:57;13.10;99.90
35240;DHT22;21376;50.954;4.716;2023-08-08T03:37:24;12.90;99.90
35240;DHT22;21376;50.954;4.716;2023-08-08T03:39:53;13.00;99.90
35240;DHT22;21376;50.954;4.716;2023-08-08T03:42:21;13.00;99.90
35240;DHT22;21376;50.954;4.716;2023-08-08T03:44:50;13.00;99.90
35240;DHT22;21376;50.954;4.716;2023-08-08T03:47:31;13.00;99.90
35240;DHT22;21376;50.954;4.716;2023-08-08T03:49:57;13.00;99.90
35240;DHT22;21376;50.954;4.716;2023-08-08T03:52:23;12.80;99.90
35240;DHT22;21376;50.954;4.716;2023-08-08T03:54:50;12.90;99.90
35240;DHT22;21376;50.954;4.716;2023-08-08T03:57:17;12.90;99.90
35240;DHT22;21376;50.954;4.716;2023-08-08T03:59:45;12.90;99.90
35240;DHT22;21376;50.954;4.716;2023-08-08T04:02:12;12.80;99.90
35240;DHT22;21376;50.954;4.716;2023-08-08T04:07:13;12.80;99.90
35240;DHT22;21376;50.954;4.716;2023-08-08T04:09:39;12.90;99.90
35240;DHT22;21376;50.954;4.716;2023-08-08T04:12:11;12.90;99.90
35240;DHT22;21376;50.954;4.716;2023-08-08T04:14:43;12.80;99.90
35240;DHT22;21376;50.954;4.716;2023-08-08T04:19:48;12.70;99.90
35240;DHT22;21376;50.954;4.716;2023-08-08T04:24:47;12.80;99.90
35240;DHT22;21376;50.954;4.716;2023-08-08T04:27:16;12.70;99.90
35240;DHT22;21376;50.954;4.716;2023-08-08T04:29:47;12.70;99.90
35240;DHT22;21376;50.954;4.716;2023-08-08T04:32:18;13.00;99.90
35240;DHT22;21376;50.954;4.716;2023-08-08T04:34:50;12.80;99.90
35240;DHT22;21376;50.954;4.716;2023-08-08T04:37:20;12.80;99.90
35240;DHT22;21376;50.954;4.716;2023-08-08T04:40:02;12.90;99.90
35240;DHT22;21376;50.954;4.716;2023-08-08T04:42:31;12.90;99.90
35240;DHT22;21376;50.954;4.716;2023-08-08T04:45:06;12.90;99.90
35240;DHT22;21376;50.954;4.716;2023-08-08T04:47:32;13.00;99.90
35240;DHT22;21376;50.954;4.716;2023-08-08T04:50:01;13.00;99.90
35240;DHT22;21376;50.954;4.716;2023-08-08T04:54:58;12.90;99.90
35240;DHT22;21376;50.954;4.716;2023-08-08T04:57:24;13.00;99.90
35240;DHT22;21376;50.954;4.716;2023-08-08T05:02:20;13.20;99.90
35240;DHT22;21376;50.954;4.716;2023-08-08T05:04:49;13.10;99.90
35240;DHT22;21376;50.954;4.716;2023-08-08T05:07:16;13.20;99.90
35240;DHT22;21376;50.954;4.716;2023-08-08T05:09:49;13.40;99.90
35240;DHT22;21376;50.954;4.716;2023-08-08T05:12:15;13.40;99.90
35240;DHT22;21376;50.954;4.716;2023-08-08T05:14:42;13.50;99.90
35240;DHT22;21376;50.954;4.716;2023-08-08T05:17:09;13.60;99.90
35240;DHT22;21376;50.954;4.716;2023-08-08T05:19:35;13.60;99.90
35240;DHT22;21376;50.954;4.716;2023-08-08T05:24:33;13.60;99.90
35240;DHT22;21376;50.954;4.716;2023-08-08T05:26:58;13.80;99.90
35240;DHT22;21376;50.954;4.716;2023-08-08T05:31:53;13.90;99.90
35240;DHT22;21376;50.954;4.716;2023-08-08T05:34:24;13.80;99.90
35240;DHT22;21376;50.954;4.716;2023-08-08T05:36:53;13.90;99.90
35240;DHT22;21376;50.954;4.716;2023-08-08T05:41:50;14.20;99.90
35240;DHT22;21376;50.954;4.716;2023-08-08T05:44:15;14.30;99.90
35240;DHT22;21376;50.954;4.716;2023-08-08T05:49:24;14.40;99.90
35240;DHT22;21376;50.954;4.716;2023-08-08T05:56:56;14.50;99.90
35240;DHT22;21376;50.954;4.716;2023-08-08T05:59:22;14.80;99.90
35240;DHT22;21376;50.954;4.716;2023-08-08T06:01:49;15.10;99.90
35240;DHT22;21376;50.954;4.716;2023-08-08T06:04:15;15.70;99.90
35240;DHT22;21376;50.954;4.716;2023-08-08T06:06:43;16.20;99.90
35240;DHT22;21376;50.954;4.716;2023-08-08T06:14:08;16.80;99.90
35240;DHT22;21376;50.954;4.716;2023-08-08T06:16:40;17.20;99.90
35240;DHT22;21376;50.954;4.716;2023-08-08T06:19:06;17.30;99.90
35240;DHT22;21376;50.954;4.716;2023-08-08T06:24:01;17.40;99.90
35240;DHT22;21376;50.954;4.716;2023-08-08T06:26:29;17.40;99.90
35240;DHT22;21376;50.954;4.716;2023-08-08T06:28:54;17.50;99.90
35240;DHT22;21376;50.954;4.716;2023-08-08T06:33:50;17.50;99.90
35240;DHT22;21376;50.954;4.716;2023-08-08T06:38:47;18.40;99.90
35240;DHT22;21376;50.954;4.716;2023-08-08T06:41:16;18.50;99.90
35240;DHT22;21376;50.954;4.716;2023-08-08T06:43:44;19.20;99.90
35240;DHT22;21376;50.954;4.716;2023-08-08T06:46:11;19.80;99.90
35240;DHT22;21376;50.954;4.716;2023-08-08T06:48:42;20.30;99.90
35240;DHT22;21376;50.954;4.716;2023-08-08T06:51:10;21.10;99.90
35240;DHT22;21376;50.954;4.716;2023-08-08T06:53:39;21.30;99.90
35240;DHT22;21376;50.954;4.716;2023-08-08T06:56:22;22.70;99.90
35240;DHT22;21376;50.954;4.716;2023-08-08T06:58:49;22.80;99.90
35240;DHT22;21376;50.954;4.716;2023-08-08T07:01:17;22.30;99.90
35240;DHT22;21376;50.954;4.716;2023-08-08T07:03:46;22.40;99.90
35240;DHT22;21376;50.954;4.716;2023-08-08T07:06:17;22.10;99.90
35240;DHT22;21376;50.954;4.716;2023-08-08T07:08:46;22.30;99.90
35240;DHT22;21376;50.954;4.716;2023-08-08T07:11:14;22.00;99.90
35240;DHT22;21376;50.954;4.716;2023-08-08T07:13:40;21.80;99.90
35240;DHT22;21376;50.954;4.716;2023-08-08T07:16:09;22.10;99.90
35240;DHT22;21376;50.954;4.716;2023-08-08T07:18:37;22.10;99.90
35240;DHT22;21376;50.954;4.716;2023-08-08T07:21:05;22.30;99.90
35240;DHT22;21376;50.954;4.716;2023-08-08T07:23:34;22.80;99.90
35240;DHT22;21376;50.954;4.716;2023-08-08T07:33:28;22.30;99.90
35240;DHT22;21376;50.954;4.716;2023-08-08T07:35:57;21.80;99.90
35240;DHT22;21376;50.954;4.716;2023-08-08T07:38:22;22.00;99.90
35240;DHT22;21376;50.954;4.716;2023-08-08T07:40:50;21.90;99.90
35240;DHT22;21376;50.954;4.716;2023-08-08T07:43:18;21.90;99.90
35240;DHT22;21376;50.954;4.716;2023-08-08T07:45:46;21.60;99.90
35240;DHT22;21376;50.954;4.716;2023-08-08T07:50:44;20.80;99.90
35240;DHT22;21376;50.954;4.716;2023-08-08T07:53:10;20.90;99.90
35240;DHT22;21376;50.954;4.716;2023-08-08T07:55:36;20.40;99.90
35240;DHT22;21376;50.954;4.716;2023-08-08T07:58:02;20.90;99.90
35240;DHT22;21376;50.954;4.716;2023-08-08T08:00:27;21.40;99.90
35240;DHT22;21376;50.954;4.716;2023-08-08T08:02:58;21.90;99.90
35240;DHT22;21376;50.954;4.716;2023-08-08T08:07:56;22.40;99.90
35240;DHT22;21376;50.954;4.716;2023-08-08T08:10:21;22.60;99.90
35240;DHT22;21376;50.954;4.716;2023-08-08T08:12:52;22.30;99.90
35240;DHT22;21376;50.954;4.716;2023-08-08T08:15:23;22.00;99.90
35240;DHT22;21376;50.954;4.716;2023-08-08T08:17:56;22.30;99.90
35240;DHT22;21376;50.954;4.716;2023-08-08T08:22:57;22.40;99.90
35240;DHT22;21376;50.954;4.716;2023-08-08T08:28:14;21.40;99.90
35240;DHT22;21376;50.954;4.716;2023-08-08T08:30:48;21.80;99.90
35240;DHT22;21376;50.954;4.716;2023-08-08T08:35:47;22.30;99.90
35240;DHT22;21376;50.954;4.716;2023-08-08T08:40:44;23.00;99.90
35240;DHT22;21376;50.954;4.716;2023-08-08T08:43:15;22.60;99.90
35240;DHT22;21376;50.954;4.716;2023-08-08T08:48:14;22.20;99.90
35240;DHT22;21376;50.954;4.716;2023-08-08T08:53:12;22.00;99.90
35240;DHT22;21376;50.954;4.716;2023-08-08T08:55:39;22.20;99.90
35240;DHT22;21376;50.954;4.716;2023-08-08T08:58:08;22.50;99.90
35240;DHT22;21376;50.954;4.716;2023-08-08T09:03:06;22.50;99.90
35240;DHT22;21376;50.954;4.716;2023-08-08T09:05:32;22.40;99.90
35240;DHT22;21376;50.954;4.716;2023-08-08T09:07:58;22.30;99.90
35240;DHT22;21376;50.954;4.716;2023-08-08T09:10:27;22.60;99.90
35240;DHT22;21376;50.954;4.716;2023-08-08T09:12:56;23.50;99.90
35240;DHT22;21376;50.954;4.716;2023-08-08T09:15:23;23.00;99.90
35240;DHT22;21376;50.954;4.716;2023-08-08T09:17:52;23.20;99.90
35240;DHT22;21376;50.954;4.716;2023-08-08T09:20:18;22.90;99.90
35240;DHT22;21376;50.954;4.716;2023-08-08T09:25:15;23.50;99.90
35240;DHT22;21376;50.954;4.716;2023-08-08T09:30:42;25.00;99.90
35240;DHT22;21376;50.954;4.716;2023-08-08T09:35:40;24.70;99.90
35240;DHT22;21376;50.954;4.716;2023-08-08T09:38:07;25.20;99.90
35240;DHT22;21376;50.954;4.716;2023-08-08T09:40:36;25.00;99.90
35240;DHT22;21376;50.954;4.716;2023-08-08T09:43:08;24.80;99.90
35240;DHT22;21376;50.954;4.716;2023-08-08T09:50:39;25.50;99.90
35240;DHT22;21376;50.954;4.716;2023-08-08T09:53:07;26.00;99.90
35240;DHT22;21376;50.954;4.716;2023-08-08T09:58:02;23.90;99.90
35240;DHT22;21376;50.954;4.716;2023-08-08T10:03:04;23.10;99.90
35240;DHT22;21376;50.954;4.716;2023-08-08T10:05:30;22.70;99.90
35240;DHT22;21376;50.954;4.716;2023-08-08T10:08:01;22.40;99.90
35240;DHT22;21376;50.954;4.716;2023-08-08T10:10:28;22.00;99.90
35240;DHT22;21376;50.954;4.716;2023-08-08T10:12:57;21.10;99.90
35240;DHT22;21376;50.954;4.716;2023-08-08T10:15:29;20.90;99.90
35240;DHT22;21376;50.954;4.716;2023-08-08T10:23:35;20.30;99.90
35240;DHT22;21376;50.954;4.716;2023-08-08T10:29:03;20.00;99.90
35240;DHT22;21376;50.954;4.716;2023-08-08T10:31:33;20.40;99.90
35240;DHT22;21376;50.954;4.716;2023-08-08T10:34:11;21.00;99.90
35240;DHT22;21376;50.954;4.716;2023-08-08T10:36:44;21.30;99.90
35240;DHT22;21376;50.954;4.716;2023-08-08T10:39:11;21.10;99.90
35240;DHT22;21376;50.954;4.716;2023-08-08T10:41:44;22.30;99.90
35240;DHT22;21376;50.954;4.716;2023-08-08T10:44:11;23.10;99.90
35240;DHT22;21376;50.954;4.716;2023-08-08T10:46:40;23.40;99.90
35240;DHT22;21376;50.954;4.716;2023-08-08T10:49:15;24.00;99.90
35240;DHT22;21376;50.954;4.716;2023-08-08T10:51:43;24.00;99.90
35240;DHT22;21376;50.954;4.716;2023-08-08T10:54:17;23.40;99.90
35240;DHT22;21376;50.954;4.716;2023-08-08T10:56:47;22.40;99.90
35240;DHT22;21376;50.954;4.716;2023-08-08T10:59:20;21.80;99.90
35240;DHT22;21376;50.954;4.716;2023-08-08T11:01:49;21.40;99.90
35240;DHT22;21376;50.954;4.716;2023-08-08T11:04:17;21.20;99.90
35240;DHT22;21376;50.954;4.716;2023-08-08T11:06:46;20.80;99.90
35240;DHT22;21376;50.954;4.716;2023-08-08T11:09:16;20.50;99.90
35240;DHT22;21376;50.954;4.716;2023-08-08T11:11:44;21.00;99.90
35240;DHT22;21376;50.954;4.716;2023-08-08T11:14:20;21.80;99.90
35240;DHT22;21376;50.954;4.716;2023-08-08T11:16:49;22.60;99.90
35240;DHT22;21376;50.954;4.716;2023-08-08T11:19:14;22.80;99.90
35240;DHT22;21376;50.954;4.716;2023-08-08T11:21:42;23.00;99.90
35240;DHT22;21376;50.954;4.716;2023-08-08T11:24:08;23.30;99.90
35240;DHT22;21376;50.954;4.716;2023-08-08T11:29:03;24.10;99.90
35240;DHT22;21376;50.954;4.716;2023-08-08T11:31:31;23.70;99.90
35240;DHT22;21376;50.954;4.716;2023-08-08T11:33:58;23.30;99.90
35240;DHT22;21376;50.954;4.716;2023-08-08T11:36:24;24.20;99.90
35240;DHT22;21376;50.954;4.716;2023-08-08T11:38:50;25.30;99.90
35240;DHT22;21376;50.954;4.716;2023-08-08T11:41:22;25.70;99.90
35240;DHT22;21376;50.954;4.716;2023-08-08T11:46:17;25.80;99.90
35240;DHT22;21376;50.954;4.716;2023-08-08T11:48:43;25.60;99.90
35240;DHT22;21376;50.954;4.716;2023-08-08T11:51:13;25.40;99.90
35240;DHT22;21376;50.954;4.716;2023-08-08T11:53:50;25.40;99.90
35240;DHT22;21376;50.954;4.716;2023-08-08T11:56:18;24.80;99.90
35240;DHT22;21376;50.954;4.716;2023-08-08T11:58:44;24.00;99.90
35240;DHT22;21376;50.954;4.716;2023-08-08T12:01:09;24.00;99.90
35240;DHT22;21376;50.954;4.716;2023-08-08T12:03:35;23.70;99.90
35240;DHT22;21376;50.954;4.716;2023-08-08T12:06:11;23.20;99.90
35240;DHT22;21376;50.954;4.716;2023-08-08T12:08:36;23.20;99.90
35240;DHT22;21376;50.954;4.716;2023-08-08T12:11:02;25.30;99.90
35240;DHT22;21376;50.954;4.716;2023-08-08T12:13:30;26.90;99.90
35240;DHT22;21376;50.954;4.716;2023-08-08T12:15:56;27.20;99.90
35240;DHT22;21376;50.954;4.716;2023-08-08T12:18:24;27.60;99.90
35240;DHT22;21376;50.954;4.716;2023-08-08T12:20:49;28.40;99.90
35240;DHT22;21376;50.954;4.716;2023-08-08T12:23:15;29.00;99.90
35240;DHT22;21376;50.954;4.716;2023-08-08T12:25:41;28.40;99.90
35240;DHT22;21376;50.954;4.716;2023-08-08T12:28:07;27.50;99.90
35240;DHT22;21376;50.954;4.716;2023-08-08T12:30:33;26.90;99.90
35240;DHT22;21376;50.954;4.716;2023-08-08T12:32:59;26.90;99.90
35240;DHT22;21376;50.954;4.716;2023-08-08T12:35:24;26.80;99.90
35240;DHT22;21376;50.954;4.716;2023-08-08T12:37:52;26.30;99.90
35240;DHT22;21376;50.954;4.716;2023-08-08T12:40:17;26.20;99.90
35240;DHT22;21376;50.954;4.716;2023-08-08T12:42:44;25.70;99.90
35240;DHT22;21376;50.954;4.716;2023-08-08T12:45:11;25.50;99.90
35240;DHT22;21376;50.954;4.716;2023-08-08T12:50:05;25.20;99.90
35240;DHT22;21376;50.954;4.716;2023-08-08T12:52:32;24.90;99.90
35240;DHT22;21376;50.954;4.716;2023-08-08T12:54:58;24.90;99.90
35240;DHT22;21376;50.954;4.716;2023-08-08T12:57:24;25.90;99.90
35240;DHT22;21376;50.954;4.716;2023-08-08T12:59:50;27.00;99.90
35240;DHT22;21376;50.954;4.716;2023-08-08T13:02:16;27.70;99.90
35240;DHT22;21376;50.954;4.716;2023-08-08T13:04:42;27.50;99.90
35240;DHT22;21376;50.954;4.716;2023-08-08T13:07:07;27.60;99.90
35240;DHT22;21376;50.954;4.716;2023-08-08T13:09:34;27.90;99.90
35240;DHT22;21376;50.954;4.716;2023-08-08T13:12:00;27.30;99.90
35240;DHT22;21376;50.954;4.716;2023-08-08T13:14:26;27.00;99.90
35240;DHT22;21376;50.954;4.716;2023-08-08T13:16:52;26.70;99.90
35240;DHT22;21376;50.954;4.716;2023-08-08T13:19:19;26.30;99.90
35240;DHT22;21376;50.954;4.716;2023-08-08T13:21:47;26.80;99.90
35240;DHT22;21376;50.954;4.716;2023-08-08T13:24:13;26.30;99.90
35240;DHT22;21376;50.954;4.716;2023-08-08T13:26:39;26.20;99.90
35240;DHT22;21376;50.954;4.716;2023-08-08T13:29:05;25.90;99.90
35240;DHT22;21376;50.954;4.716;2023-08-08T13:31:37;26.00;99.90
35240;DHT22;21376;50.954;4.716;2023-08-08T13:34:04;25.20;99.90
35240;DHT22;21376;50.954;4.716;2023-08-08T13:36:37;24.70;99.90
35240;DHT22;21376;50.954;4.716;2023-08-08T13:39:03;23.90;99.90
35240;DHT22;21376;50.954;4.716;2023-08-08T13:41:31;23.70;99.90
35240;DHT22;21376;50.954;4.716;2023-08-08T13:44:00;23.80;99.90
35240;DHT22;21376;50.954;4.716;2023-08-08T13:46:29;23.80;99.90
35240;DHT22;21376;50.954;4.716;2023-08-08T13:48:57;23.60;99.90
35240;DHT22;21376;50.954;4.716;2023-08-08T13:51:23;23.50;99.90
35240;DHT22;21376;50.954;4.716;2023-08-08T13:56:19;24.20;99.90
35240;DHT22;21376;50.954;4.716;2023-08-08T13:58:48;24.00;99.90
35240;DHT22;21376;50.954;4.716;2023-08-08T14:01:16;23.90;99.90
35240;DHT22;21376;50.954;4.716;2023-08-08T14:03:43;24.10;99.90
35240;DHT22;21376;50.954;4.716;2023-08-08T14:06:12;24.00;99.90
35240;DHT22;21376;50.954;4.716;2023-08-08T14:11:09;23.40;99.90
35240;DHT22;21376;50.954;4.716;2023-08-08T14:13:34;23.20;99.90
35240;DHT22;21376;50.954;4.716;2023-08-08T14:16:00;23.30;99.90
35240;DHT22;21376;50.954;4.716;2023-08-08T14:18:26;23.30;99.90
35240;DHT22;21376;50.954;4.716;2023-08-08T14:23:20;23.30;99.90
35240;DHT22;21376;50.954;4.716;2023-08-08T14:25:49;23.10;99.90
35240;DHT22;21376;50.954;4.716;2023-08-08T14:28:26;23.10;99.90
35240;DHT22;21376;50.954;4.716;2023-08-08T14:30:53;23.10;99.90
35240;DHT22;21376;50.954;4.716;2023-08-08T14:33:21;22.80;99.90
35240;DHT22;21376;50.954;4.716;2023-08-08T14:35:49;23.00;99.90
35240;DHT22;21376;50.954;4.716;2023-08-08T14:38:15;22.70;99.90
35240;DHT22;21376;50.954;4.716;2023-08-08T14:43:13;23.50;99.90
35240;DHT22;21376;50.954;4.716;2023-08-08T14:48:10;23.80;99.90
35240;DHT22;21376;50.954;4.716;2023-08-08T14:50:37;23.60;99.90
35240;DHT22;21376;50.954;4.716;2023-08-08T14:53:05;23.20;99.90
35240;DHT22;21376;50.954;4.716;2023-08-08T14:55:39;22.90;99.90
35240;DHT22;21376;50.954;4.716;2023-08-08T14:58:16;22.50;99.90
35240;DHT22;21376;50.954;4.716;2023-08-08T15:03:13;21.80;99.90
35240;DHT22;21376;50.954;4.716;2023-08-08T15:05:41;21.70;99.90
35240;DHT22;21376;50.954;4.716;2023-08-08T15:08:25;21.40;99.90
35240;DHT22;21376;50.954;4.716;2023-08-08T15:13:24;21.50;99.90
35240;DHT22;21376;50.954;4.716;2023-08-08T15:15:51;21.50;99.90
35240;DHT22;21376;50.954;4.716;2023-08-08T15:18:20;20.90;99.90
35240;DHT22;21376;50.954;4.716;2023-08-08T15:21:02;20.80;99.90
35240;DHT22;21376;50.954;4.716;2023-08-08T15:23:31;20.60;99.90
35240;DHT22;21376;50.954;4.716;2023-08-08T15:25:59;20.60;99.90
35240;DHT22;21376;50.954;4.716;2023-08-08T15:28:25;20.60;99.90
35240;DHT22;21376;50.954;4.716;2023-08-08T15:30:54;20.70;99.90
35240;DHT22;21376;50.954;4.716;2023-08-08T15:33:20;20.90;99.90
35240;DHT22;21376;50.954;4.716;2023-08-08T15:41:02;20.60;99.90
35240;DHT22;21376;50.954;4.716;2023-08-08T15:43:30;20.60;99.90
35240;DHT22;21376;50.954;4.716;2023-08-08T15:45:59;20.50;99.90
35240;DHT22;21376;50.954;4.716;2023-08-08T15:50:57;20.60;99.90
35240;DHT22;21376;50.954;4.716;2023-08-08T15:53:23;20.50;99.90
35240;DHT22;21376;50.954;4.716;2023-08-08T15:55:51;20.40;99.90
35240;DHT22;21376;50.954;4.716;2023-08-08T15:58:17;20.50;99.90
35240;DHT22;21376;50.954;4.716;2023-08-08T16:00:46;20.50;99.90
35240;DHT22;21376;50.954;4.716;2023-08-08T16:03:12;20.40;99.90
35240;DHT22;21376;50.954;4.716;2023-08-08T16:05:38;20.40;99.90
35240;DHT22;21376;50.954;4.716;2023-08-08T16:08:05;20.30;99.90
35240;DHT22;21376;50.954;4.716;2023-08-08T16:10:32;20.20;99.90
35240;DHT22;21376;50.954;4.716;2023-08-08T16:15:58;20.20;99.90
35240;DHT22;21376;50.954;4.716;2023-08-08T16:18:28;20.00;99.90
35240;DHT22;21376;50.954;4.716;2023-08-08T16:26:36;20.20;99.90
35240;DHT22;21376;50.954;4.716;2023-08-08T16:29:03;20.30;99.90
35240;DHT22;21376;50.954;4.716;2023-08-08T16:31:30;20.40;99.90
35240;DHT22;21376;50.954;4.716;2023-08-08T16:33:56;20.30;99.90
35240;DHT22;21376;50.954;4.716;2023-08-08T16:36:22;20.40;99.90
35240;DHT22;21376;50.954;4.716;2023-08-08T16:38:51;20.10;99.90
35240;DHT22;21376;50.954;4.716;2023-08-08T16:41:20;20.00;99.90
35240;DHT22;21376;50.954;4.716;2023-08-08T16:44:02;19.80;99.90
35240;DHT22;21376;50.954;4.716;2023-08-08T16:46:34;19.50;99.90
35240;DHT22;21376;50.954;4.716;2023-08-08T16:49:02;19.20;99.90
35240;DHT22;21376;50.954;4.716;2023-08-08T16:51:31;19.20;99.90
35240;DHT22;21376;50.954;4.716;2023-08-08T16:53:56;19.00;99.90
35240;DHT22;21376;50.954;4.716;2023-08-08T16:56:23;18.70;99.90
35240;DHT22;21376;50.954;4.716;2023-08-08T16:58:52;18.40;99.90
35240;DHT22;21376;50.954;4.716;2023-08-08T17:01:24;18.10;99.90
35240;DHT22;21376;50.954;4.716;2023-08-08T17:03:52;18.00;99.90
35240;DHT22;21376;50.954;4.716;2023-08-08T17:06:21;17.80;99.90
35240;DHT22;21376;50.954;4.716;2023-08-08T17:08:48;17.70;99.90
35240;DHT22;21376;50.954;4.716;2023-08-08T17:11:15;17.60;99.90
35240;DHT22;21376;50.954;4.716;2023-08-08T17:13:44;17.70;99.90
35240;DHT22;21376;50.954;4.716;2023-08-08T17:16:15;17.60;99.90
35240;DHT22;21376;50.954;4.716;2023-08-08T17:21:13;17.60;99.90
35240;DHT22;21376;50.954;4.716;2023-08-08T17:26:08;17.70;99.90
35240;DHT22;21376;50.954;4.716;2023-08-08T17:28:37;17.70;99.90
35240;DHT22;21376;50.954;4.716;2023-08-08T17:31:07;17.70;99.90
35240;DHT22;21376;50.954;4.716;2023-08-08T17:33:35;17.60;99.90
35240;DHT22;21376;50.954;4.716;2023-08-08T17:36:02;17.60;99.90
35240;DHT22;21376;50.954;4.716;2023-08-08T17:38:31;17.60;99.90
35240;DHT22;21376;50.954;4.716;2023-08-08T17:40:59;17.50;99.90
35240;DHT22;21376;50.954;4.716;2023-08-08T17:43:31;17.40;99.90
35240;DHT22;21376;50.954;4.716;2023-08-08T17:46:00;17.50;99.90
35240;DHT22;21376;50.954;4.716;2023-08-08T17:48:27;17.50;99.90
35240;DHT22;21376;50.954;4.716;2023-08-08T17:50:54;17.60;99.90
35240;DHT22;21376;50.954;4.716;2023-08-08T17:53:22;17.60;99.90
35240;DHT22;21376;50.954;4.716;2023-08-08T17:55:51;17.80;99.90
35240;DHT22;21376;50.954;4.716;2023-08-08T18:01:03;17.50;99.90
35240;DHT22;21376;50.954;4.716;2023-08-08T18:03:29;17.40;99.90
35240;DHT22;21376;50.954;4.716;2023-08-08T18:05:56;17.20;99.90
35240;DHT22;21376;50.954;4.716;2023-08-08T18:08:25;17.00;99.90
35240;DHT22;21376;50.954;4.716;2023-08-08T18:10:53;16.90;99.90
35240;DHT22;21376;50.954;4.716;2023-08-08T18:13:19;17.00;99.90
35240;DHT22;21376;50.954;4.716;2023-08-08T18:18:18;16.90;99.90
35240;DHT22;21376;50.954;4.716;2023-08-08T18:23:13;16.90;99.90
35240;DHT22;21376;50.954;4.716;2023-08-08T18:28:11;16.80;99.90
35240;DHT22;21376;50.954;4.716;2023-08-08T18:33:08;16.60;99.90
35240;DHT22;21376;50.954;4.716;2023-08-08T18:38:16;16.60;99.90
35240;DHT22;21376;50.954;4.716;2023-08-08T18:40:43;16.70;99.90
35240;DHT22;21376;50.954;4.716;2023-08-08T18:43:12;16.80;99.90
35240;DHT22;21376;50.954;4.716;2023-08-08T18:45:38;16.70;99.90
35240;DHT22;21376;50.954;4.716;2023-08-08T18:48:05;16.70;99.90
35240;DHT22;21376;50.954;4.716;2023-08-08T18:50:30;16.60;99.90
35240;DHT22;21376;50.954;4.716;2023-08-08T18:52:56;16.40;99.90
35240;DHT22;21376;50.954;4.716;2023-08-08T18:55:22;16.40;99.90
35240;DHT22;21376;50.954;4.716;2023-08-08T18:57:48;16.30;99.90
35240;DHT22;21376;50.954;4.716;2023-08-08T19:00:13;16.30;99.90
35240;DHT22;21376;50.954;4.716;2023-08-08T19:02:39;16.40;99.90
35240;DHT22;21376;50.954;4.716;2023-08-08T19:05:05;16.60;99.90